createdAt,value
2017-03-24T00:00:05.014Z,9.28
2017-03-24T00:01:05.350Z,9.32
2017-03-24T00:02:05.084Z,9.43
2017-03-24T00:03:05.727Z,9.32
2017-03-24T00:04:05.153Z,9.39
2017-03-24T00:05:05.192Z,9.42
2017-03-24T00:06:05.525Z,9.34
2017-03-24T00:07:05.255Z,9.34
2017-03-24T00:08:05.599Z,9.34
2017-03-24T00:09:05.333Z,9.25
2017-03-24T00:10:05.366Z,9.32
2017-03-24T00:11:05.393Z,9.39
2017-03-24T00:12:05.742Z,9.43
2017-03-24T00:13:05.474Z,9.31
2017-03-24T00:14:05.508Z,9.34
2017-03-24T00:15:05.537Z,9.42
2017-03-24T00:16:05.875Z,9.45
2017-03-24T00:17:05.909Z,9.34
2017-03-24T00:18:05.946Z,9.34
2017-03-24T00:19:05.978Z,9.4
2017-03-24T00:20:05.715Z,9.32
2017-03-24T00:21:05.749Z,9.34
2017-03-24T00:22:06.083Z,9.32
2017-03-24T00:23:05.817Z,9.34
2017-03-24T00:24:06.152Z,9.31
2017-03-24T00:25:06.193Z,9.38
2017-03-24T00:26:05.918Z,9.31
2017-03-24T00:27:06.268Z,9.31
2017-03-24T00:28:06.296Z,9.35
2017-03-24T00:29:06.332Z,9.3
2017-03-24T00:30:06.363Z,9.24
2017-03-24T00:31:06.395Z,9.3
2017-03-24T00:32:06.128Z,9.31
2017-03-24T00:33:06.471Z,9.25
2017-03-24T00:34:06.504Z,9.23
2017-03-24T00:35:06.241Z,9.23
2017-03-24T00:36:06.268Z,9.23
2017-03-24T00:37:06.299Z,9.25
2017-03-24T00:38:06.340Z,9.15
2017-03-24T00:39:06.688Z,9.23
2017-03-24T00:40:06.403Z,9.23
2017-03-24T00:41:06.438Z,9.18
2017-03-24T00:42:06.476Z,9.3
2017-03-24T00:43:06.816Z,9.21
2017-03-24T00:44:06.547Z,9.21
2017-03-24T00:45:06.581Z,9.16
2017-03-24T00:46:06.914Z,9.16
2017-03-24T00:47:06.658Z,9.32
2017-03-24T00:48:06.995Z,9.21
2017-03-24T00:49:07.023Z,9.18
2017-03-24T00:50:06.756Z,9.18
2017-03-24T00:51:06.794Z,9.2
2017-03-24T00:52:06.827Z,9.25
2017-03-24T00:53:06.865Z,9.2
2017-03-24T00:54:07.193Z,9.2
2017-03-24T00:55:07.235Z,9.23
2017-03-24T00:56:06.969Z,9.28
2017-03-24T00:57:07.000Z,9.3
2017-03-24T00:58:07.341Z,9.2
2017-03-24T00:59:07.366Z,9.18
2017-03-24T01:00:07.106Z,9.23
2017-03-24T01:01:07.132Z,9.2
2017-03-24T01:02:07.477Z,9.16
2017-03-24T01:03:07.214Z,9.2
2017-03-24T01:04:07.543Z,9.2
2017-03-24T01:05:07.276Z,9.16
2017-03-24T01:06:07.613Z,9.18
2017-03-24T01:07:07.651Z,9.18
2017-03-24T01:08:07.379Z,9.23
2017-03-24T01:09:07.416Z,9.21
2017-03-24T01:10:07.449Z,9.2
2017-03-24T01:11:07.488Z,9.18
2017-03-24T01:12:07.831Z,9.15
2017-03-24T01:13:07.860Z,9.21
2017-03-24T01:14:07.593Z,9.13
2017-03-24T01:15:07.921Z,9.1
2017-03-24T01:16:07.659Z,9.21
2017-03-24T01:17:07.999Z,9.16
2017-03-24T01:18:07.728Z,9.15
2017-03-24T01:19:08.370Z,9.06
2017-03-24T01:20:07.800Z,9.15
2017-03-24T01:21:07.828Z,9.12
2017-03-24T01:22:07.866Z,9.13
2017-03-24T01:23:08.208Z,9.09
2017-03-24T01:24:08.238Z,9.06
2017-03-24T01:25:07.973Z,9.12
2017-03-24T01:26:08.307Z,9.1
2017-03-24T01:27:08.038Z,9.12
2017-03-24T01:28:08.074Z,9.12
2017-03-24T01:29:08.718Z,9.02
2017-03-24T01:30:08.142Z,9.05
2017-03-24T01:31:08.180Z,9.04
2017-03-24T01:32:08.211Z,9.06
2017-03-24T01:33:08.549Z,9.1
2017-03-24T01:34:08.638Z,9.05
2017-03-24T01:35:08.319Z,9.04
2017-03-24T01:36:08.348Z,9.09
2017-03-24T01:37:08.383Z,9.04
2017-03-24T01:38:08.723Z,8.97
2017-03-24T01:39:08.764Z,9.02
2017-03-24T01:40:08.491Z,9.01
2017-03-24T01:41:08.524Z,9.04
2017-03-24T01:42:08.859Z,9.04
2017-03-24T01:43:08.592Z,9.05
2017-03-24T01:44:08.935Z,8.99
2017-03-24T01:45:08.664Z,9.06
2017-03-24T01:46:08.698Z,9.01
2017-03-24T01:47:08.744Z,9.02
2017-03-24T01:48:08.770Z,8.97
2017-03-24T01:49:09.103Z,8.87
2017-03-24T01:50:08.836Z,8.9
2017-03-24T01:51:08.876Z,8.97
2017-03-24T01:52:08.906Z,9.05
2017-03-24T01:53:08.947Z,8.97
2017-03-24T01:54:09.040Z,8.9
2017-03-24T01:55:09.009Z,9.01
2017-03-24T01:56:09.054Z,8.96
2017-03-24T01:57:09.113Z,9.02
2017-03-24T01:58:09.410Z,8.94
2017-03-24T01:59:09.159Z,8.96
2017-03-24T02:00:09.183Z,9.02
2017-03-24T02:01:09.213Z,8.94
2017-03-24T02:02:09.555Z,8.99
2017-03-24T02:03:09.591Z,8.96
2017-03-24T02:04:09.323Z,8.93
2017-03-24T02:05:09.661Z,8.91
2017-03-24T02:06:09.395Z,8.97
2017-03-24T02:07:09.430Z,9.02
2017-03-24T02:08:09.460Z,8.97
2017-03-24T02:09:09.796Z,8.97
2017-03-24T02:10:09.531Z,8.97
2017-03-24T02:11:09.563Z,8.96
2017-03-24T02:12:09.898Z,8.94
2017-03-24T02:13:09.633Z,9.02
2017-03-24T02:14:09.965Z,8.96
2017-03-24T02:15:10.002Z,8.94
2017-03-24T02:16:10.046Z,8.93
2017-03-24T02:17:09.769Z,9.04
2017-03-24T02:18:09.802Z,8.9
2017-03-24T02:19:09.841Z,8.96
2017-03-24T02:20:10.186Z,8.87
2017-03-24T02:21:10.208Z,8.97
2017-03-24T02:22:09.949Z,8.94
2017-03-24T02:23:10.283Z,8.84
2017-03-24T02:24:10.623Z,8.87
2017-03-24T02:25:10.049Z,8.94
2017-03-24T02:26:10.382Z,8.83
2017-03-24T02:27:10.452Z,8.87
2017-03-24T02:28:10.455Z,8.9
2017-03-24T02:29:10.491Z,8.84
2017-03-24T02:30:10.221Z,8.91
2017-03-24T02:31:10.257Z,8.91
2017-03-24T02:32:10.289Z,8.86
2017-03-24T02:33:10.326Z,8.83
2017-03-24T02:34:10.663Z,8.83
2017-03-24T02:35:10.405Z,8.81
2017-03-24T02:36:10.728Z,8.86
2017-03-24T02:37:10.773Z,8.86
2017-03-24T02:38:10.797Z,8.88
2017-03-24T02:39:10.836Z,8.83
2017-03-24T02:40:10.570Z,8.86
2017-03-24T02:41:10.601Z,8.83
2017-03-24T02:42:11.243Z,8.83
2017-03-24T02:43:10.670Z,8.83
2017-03-24T02:44:11.007Z,8.81
2017-03-24T02:45:10.739Z,8.81
2017-03-24T02:46:10.767Z,8.78
2017-03-24T02:47:10.808Z,8.81
2017-03-24T02:48:10.838Z,8.84
2017-03-24T02:49:11.182Z,8.79
2017-03-24T02:50:10.919Z,8.86
2017-03-24T02:51:10.946Z,8.83
2017-03-24T02:52:11.277Z,8.79
2017-03-24T02:53:11.321Z,8.75
2017-03-24T02:54:11.369Z,8.86
2017-03-24T02:55:11.080Z,8.71
2017-03-24T02:56:11.112Z,8.73
2017-03-24T02:57:11.455Z,8.69
2017-03-24T02:58:11.791Z,8.76
2017-03-24T02:59:11.219Z,8.71
2017-03-24T03:00:11.258Z,8.68
2017-03-24T03:01:11.585Z,8.69
2017-03-24T03:02:11.327Z,8.69
2017-03-24T03:03:11.661Z,8.66
2017-03-24T03:04:11.917Z,8.66
2017-03-24T03:05:11.726Z,8.65
2017-03-24T03:06:11.762Z,8.58
2017-03-24T03:07:11.497Z,8.65
2017-03-24T03:08:11.833Z,8.62
2017-03-24T03:09:11.867Z,8.53
2017-03-24T03:10:11.902Z,8.55
2017-03-24T03:11:11.626Z,8.51
2017-03-24T03:12:11.977Z,8.51
2017-03-24T03:13:12.007Z,8.5
2017-03-24T03:14:11.749Z,8.42
2017-03-24T03:15:11.768Z,8.4
2017-03-24T03:16:12.104Z,8.35
2017-03-24T03:17:12.134Z,8.37
2017-03-24T03:18:12.181Z,8.32
2017-03-24T03:19:12.206Z,8.39
2017-03-24T03:20:12.243Z,8.29
2017-03-24T03:21:12.274Z,8.3
2017-03-24T03:22:12.310Z,8.22
2017-03-24T03:23:12.059Z,8.22
2017-03-24T03:24:12.379Z,8.18
2017-03-24T03:25:12.114Z,8.18
2017-03-24T03:26:12.141Z,8.22
2017-03-24T03:27:12.178Z,8.21
2017-03-24T03:28:12.250Z,8.28
2017-03-24T03:29:12.553Z,8.22
2017-03-24T03:30:12.282Z,8.25
2017-03-24T03:31:12.316Z,8.2
2017-03-24T03:32:12.348Z,8.12
2017-03-24T03:33:12.687Z,8.03
2017-03-24T03:34:12.725Z,8.04
2017-03-24T03:35:12.753Z,8.03
2017-03-24T03:36:12.785Z,8
2017-03-24T03:37:12.827Z,8.07
2017-03-24T03:38:13.158Z,8.04
2017-03-24T03:39:13.192Z,8.1
2017-03-24T03:40:12.922Z,7.93
2017-03-24T03:41:12.955Z,7.97
2017-03-24T03:42:12.686Z,8.08
2017-03-24T03:43:12.723Z,8.1
2017-03-24T03:44:13.359Z,8
2017-03-24T03:45:13.093Z,7.97
2017-03-24T03:46:13.129Z,8.03
2017-03-24T03:47:12.854Z,8
2017-03-24T03:48:13.199Z,7.97
2017-03-24T03:49:13.234Z,8.02
2017-03-24T03:50:12.957Z,7.96
2017-03-24T03:51:12.996Z,8.04
2017-03-24T03:52:13.025Z,8.1
2017-03-24T03:53:13.359Z,8
2017-03-24T03:54:13.412Z,8.12
2017-03-24T03:55:13.130Z,8.12
2017-03-24T03:56:13.161Z,8.08
2017-03-24T03:57:13.198Z,8.08
2017-03-24T03:58:13.232Z,8.11
2017-03-24T03:59:13.602Z,8.03
2017-03-24T04:00:13.602Z,8.15
2017-03-24T04:01:13.337Z,8.1
2017-03-24T04:02:13.668Z,8.08
2017-03-24T04:03:13.704Z,8.04
2017-03-24T04:04:13.745Z,8.15
2017-03-24T04:05:13.781Z,8.14
2017-03-24T04:06:13.809Z,8.07
2017-03-24T04:07:13.849Z,8.2
2017-03-24T04:08:13.583Z,8.12
2017-03-24T04:09:13.913Z,8.11
2017-03-24T04:10:13.643Z,8.2
2017-03-24T04:11:13.670Z,8.1
2017-03-24T04:12:13.713Z,8.21
2017-03-24T04:13:14.048Z,8.17
2017-03-24T04:14:13.785Z,8.2
2017-03-24T04:15:14.118Z,8.21
2017-03-24T04:16:13.846Z,8.11
2017-03-24T04:17:13.878Z,8.17
2017-03-24T04:18:13.920Z,8.28
2017-03-24T04:19:14.249Z,8.17
2017-03-24T04:20:13.979Z,8.1
2017-03-24T04:21:14.019Z,8.2
2017-03-24T04:22:14.362Z,8.18
2017-03-24T04:23:14.384Z,8.2
2017-03-24T04:24:14.422Z,8.14
2017-03-24T04:25:14.449Z,8.17
2017-03-24T04:26:14.188Z,8.17
2017-03-24T04:27:14.217Z,8.15
2017-03-24T04:28:14.257Z,8.14
2017-03-24T04:29:14.591Z,8.22
2017-03-24T04:30:14.320Z,8.17
2017-03-24T04:31:14.355Z,8.15
2017-03-24T04:32:14.393Z,8.2
2017-03-24T04:33:14.423Z,8.15
2017-03-24T04:34:14.766Z,8.3
2017-03-24T04:35:14.802Z,8.15
2017-03-24T04:36:14.821Z,8.18
2017-03-24T04:37:14.560Z,8.2
2017-03-24T04:38:14.909Z,8.21
2017-03-24T04:39:14.938Z,8.12
2017-03-24T04:40:14.962Z,8.12
2017-03-24T04:41:14.711Z,8.21
2017-03-24T04:42:14.732Z,8.12
2017-03-24T04:43:15.118Z,8.1
2017-03-24T04:44:15.102Z,8.15
2017-03-24T04:45:15.133Z,8.17
2017-03-24T04:46:15.163Z,8.11
2017-03-24T04:47:14.903Z,8.12
2017-03-24T04:48:15.241Z,8
2017-03-24T04:49:14.976Z,8.03
2017-03-24T04:50:15.005Z,8.03
2017-03-24T04:51:15.034Z,8.02
2017-03-24T04:52:15.380Z,8.07
2017-03-24T04:53:15.408Z,7.99
2017-03-24T04:54:15.450Z,8.03
2017-03-24T04:55:15.171Z,7.96
2017-03-24T04:56:15.208Z,7.96
2017-03-24T04:57:15.239Z,7.81
2017-03-24T04:58:15.278Z,7.87
2017-03-24T04:59:15.613Z,7.85
2017-03-24T05:00:15.642Z,7.9
2017-03-24T05:01:15.378Z,7.87
2017-03-24T05:02:15.717Z,7.82
2017-03-24T05:03:15.747Z,7.81
2017-03-24T05:04:15.482Z,7.87
2017-03-24T05:05:15.510Z,7.77
2017-03-24T05:06:15.553Z,7.85
2017-03-24T05:07:15.583Z,7.78
2017-03-24T05:08:15.917Z,7.79
2017-03-24T05:09:15.952Z,7.77
2017-03-24T05:10:15.681Z,7.81
2017-03-24T05:11:15.718Z,7.81
2017-03-24T05:12:15.754Z,7.89
2017-03-24T05:13:16.088Z,7.78
2017-03-24T05:14:16.118Z,7.79
2017-03-24T05:15:15.858Z,7.92
2017-03-24T05:16:15.882Z,7.74
2017-03-24T05:17:15.919Z,7.84
2017-03-24T05:18:16.258Z,7.82
2017-03-24T05:19:16.298Z,7.81
2017-03-24T05:20:16.018Z,7.82
2017-03-24T05:21:16.055Z,7.79
2017-03-24T05:22:16.085Z,7.81
2017-03-24T05:23:16.127Z,7.79
2017-03-24T05:24:16.508Z,7.84
2017-03-24T05:25:16.491Z,7.9
2017-03-24T05:26:16.220Z,7.77
2017-03-24T05:27:16.255Z,7.82
2017-03-24T05:28:16.601Z,7.72
2017-03-24T05:29:16.331Z,7.67
2017-03-24T05:30:16.655Z,7.71
2017-03-24T05:31:16.695Z,7.85
2017-03-24T05:32:16.727Z,7.9
2017-03-24T05:33:16.463Z,7.82
2017-03-24T05:34:16.497Z,7.87
2017-03-24T05:35:16.525Z,7.87
2017-03-24T05:36:16.865Z,7.84
2017-03-24T05:37:16.893Z,7.84
2017-03-24T05:38:16.935Z,7.74
2017-03-24T05:39:16.971Z,7.79
2017-03-24T05:40:16.695Z,7.82
2017-03-24T05:41:16.730Z,7.85
2017-03-24T05:42:16.763Z,7.85
2017-03-24T05:43:16.799Z,7.84
2017-03-24T05:44:17.137Z,7.87
2017-03-24T05:45:17.165Z,7.84
2017-03-24T05:46:17.202Z,7.93
2017-03-24T05:47:16.931Z,7.97
2017-03-24T05:48:17.270Z,7.96
2017-03-24T05:49:17.308Z,7.99
2017-03-24T05:50:17.033Z,8.08
2017-03-24T05:51:17.070Z,8.04
2017-03-24T05:52:17.475Z,8.07
2017-03-24T05:53:17.738Z,8.2
2017-03-24T05:54:17.174Z,8.07
2017-03-24T05:55:17.206Z,8.1
2017-03-24T05:56:17.244Z,8.25
2017-03-24T05:57:17.280Z,8.2
2017-03-24T05:58:17.308Z,8.26
2017-03-24T05:59:17.351Z,8.37
2017-03-24T06:00:17.677Z,8.39
2017-03-24T06:01:17.416Z,8.42
2017-03-24T06:02:18.057Z,8.5
2017-03-24T06:03:17.837Z,8.62
2017-03-24T06:04:17.819Z,8.68
2017-03-24T06:05:17.849Z,8.78
2017-03-24T06:06:17.881Z,8.86
2017-03-24T06:07:17.617Z,8.88
2017-03-24T06:08:17.710Z,8.93
2017-03-24T06:09:18.303Z,8.93
2017-03-24T06:10:18.047Z,9.05
2017-03-24T06:11:17.771Z,9.02
2017-03-24T06:12:18.099Z,9.05
2017-03-24T06:13:17.822Z,9.05
2017-03-24T06:14:17.862Z,9.01
2017-03-24T06:15:17.900Z,8.94
2017-03-24T06:16:17.935Z,8.97
2017-03-24T06:17:17.969Z,8.99
2017-03-24T06:18:18.311Z,9.05
2017-03-24T06:19:18.335Z,8.97
2017-03-24T06:20:18.077Z,9.01
2017-03-24T06:21:18.105Z,9.02
2017-03-24T06:22:18.744Z,8.96
2017-03-24T06:23:18.506Z,8.93
2017-03-24T06:24:18.211Z,8.79
2017-03-24T06:25:18.248Z,8.94
2017-03-24T06:26:18.335Z,8.94
2017-03-24T06:27:18.315Z,9.1
2017-03-24T06:28:18.344Z,9.06
2017-03-24T06:29:18.683Z,9.02
2017-03-24T06:30:18.718Z,9.15
2017-03-24T06:31:18.765Z,9.15
2017-03-24T06:32:18.792Z,9.05
2017-03-24T06:33:18.564Z,9.15
2017-03-24T06:34:18.862Z,9.18
2017-03-24T06:35:18.594Z,9.21
2017-03-24T06:36:18.629Z,9.21
2017-03-24T06:37:18.657Z,9.21
2017-03-24T06:38:18.695Z,9.31
2017-03-24T06:39:18.731Z,9.35
2017-03-24T06:40:18.767Z,9.5
2017-03-24T06:41:19.102Z,9.6
2017-03-24T06:42:18.834Z,9.73
2017-03-24T06:43:19.179Z,9.71
2017-03-24T06:44:19.211Z,9.93
2017-03-24T06:45:18.939Z,10.06
2017-03-24T06:46:19.283Z,10.18
2017-03-24T06:47:19.354Z,10.51
2017-03-24T06:48:19.358Z,10.84
2017-03-24T06:49:19.392Z,11.01
2017-03-24T06:50:19.451Z,11.43
2017-03-24T06:51:19.457Z,11.62
2017-03-24T06:52:19.496Z,12.05
2017-03-24T06:53:19.530Z,12.48
2017-03-24T06:54:19.268Z,13.15
2017-03-24T06:55:19.616Z,13.73
2017-03-24T06:56:19.343Z,14.2
2017-03-24T06:57:19.453Z,14.38
2017-03-24T06:58:19.717Z,14.68
2017-03-24T06:59:20.063Z,14.99
2017-03-24T07:00:19.489Z,15.38
2017-03-24T07:01:20.134Z,15.78
2017-03-24T07:02:19.567Z,15.93
2017-03-24T07:03:19.603Z,16.09
2017-03-24T07:04:19.954Z,16.06
2017-03-24T07:05:19.985Z,16.01
2017-03-24T07:06:19.744Z,15.93
2017-03-24T07:07:19.761Z,15.75
2017-03-24T07:08:19.803Z,15.68
2017-03-24T07:09:20.138Z,15.54
2017-03-24T07:10:20.176Z,15.45
2017-03-24T07:11:20.211Z,15.42
2017-03-24T07:12:19.949Z,15.36
2017-03-24T07:13:20.299Z,15.46
2017-03-24T07:14:20.638Z,15.59
2017-03-24T07:15:20.065Z,15.84
2017-03-24T07:16:20.414Z,15.93
2017-03-24T07:17:20.146Z,16.12
2017-03-24T07:18:20.194Z,16.14
2017-03-24T07:19:20.231Z,16.2
2017-03-24T07:20:20.260Z,16.16
2017-03-24T07:21:20.303Z,16.31
2017-03-24T07:22:20.644Z,16.59
2017-03-24T07:23:20.687Z,16.92
2017-03-24T07:24:20.431Z,17.35
2017-03-24T07:25:20.471Z,17.74
2017-03-24T07:26:20.505Z,18.1
2017-03-24T07:27:20.543Z,18.8
2017-03-24T07:28:20.583Z,19.36
2017-03-24T07:29:20.636Z,19.91
2017-03-24T07:30:21.288Z,20.46
2017-03-24T07:31:20.763Z,21.16
2017-03-24T07:32:20.750Z,21.51
2017-03-24T07:33:20.789Z,21.92
2017-03-24T07:34:20.854Z,22.32
2017-03-24T07:35:20.868Z,22.84
2017-03-24T07:36:20.919Z,23.12
2017-03-24T07:37:20.958Z,23.55
2017-03-24T07:38:21.309Z,23.9
2017-03-24T07:39:21.049Z,24.16
2017-03-24T07:40:21.088Z,24.34
2017-03-24T07:41:21.434Z,24.53
2017-03-24T07:42:21.181Z,24.68
2017-03-24T07:43:21.232Z,24.71
2017-03-24T07:44:21.573Z,24.77
2017-03-24T07:45:21.616Z,24.77
2017-03-24T07:46:21.655Z,24.67
2017-03-24T07:47:22.007Z,24.71
2017-03-24T07:48:21.747Z,24.8
2017-03-24T07:49:21.488Z,24.88
2017-03-24T07:50:21.838Z,24.91
2017-03-24T07:51:21.884Z,25.1
2017-03-24T07:52:21.929Z,25.2
2017-03-24T07:53:21.972Z,25.35
2017-03-24T07:54:22.014Z,25.47
2017-03-24T07:55:21.823Z,25.39
2017-03-24T07:56:21.804Z,25.5
2017-03-24T07:57:21.855Z,25.56
2017-03-24T07:58:21.898Z,25.56
2017-03-24T07:59:21.938Z,25.69
2017-03-24T08:00:21.982Z,25.5
2017-03-24T08:01:22.037Z,25.24
2017-03-24T08:02:22.079Z,25.17
2017-03-24T08:03:22.114Z,24.95
2017-03-24T08:04:22.196Z,24.79
2017-03-24T08:05:22.517Z,24.53
2017-03-24T08:06:22.398Z,24.39
2017-03-24T08:07:22.304Z,24.37
2017-03-24T08:08:22.346Z,24.35
2017-03-24T08:09:22.398Z,24.24
2017-03-24T08:10:22.445Z,24.29
2017-03-24T08:11:22.489Z,24.32
2017-03-24T08:12:22.531Z,24.54
2017-03-24T08:13:22.618Z,24.95
2017-03-24T08:14:22.979Z,25.16
2017-03-24T08:15:22.973Z,25.46
2017-03-24T08:16:23.024Z,25.68
2017-03-24T08:17:22.768Z,25.83
2017-03-24T08:18:22.813Z,26.08
2017-03-24T08:19:22.860Z,25.91
2017-03-24T08:20:22.900Z,25.49
2017-03-24T08:21:22.957Z,25.13
2017-03-24T08:22:23.006Z,25.16
2017-03-24T08:23:23.047Z,25.27
2017-03-24T08:24:23.092Z,25.42
2017-03-24T08:25:23.134Z,25.68
2017-03-24T08:26:23.183Z,25.93
2017-03-24T08:27:23.293Z,26.12
2017-03-24T08:28:23.274Z,26.39
2017-03-24T08:29:23.334Z,26.73
2017-03-24T08:30:23.380Z,26.99
2017-03-24T08:31:23.606Z,27.28
2017-03-24T08:32:23.584Z,27.42
2017-03-24T08:33:23.528Z,27.54
2017-03-24T08:34:23.569Z,27.76
2017-03-24T08:35:23.918Z,27.88
2017-03-24T08:36:23.974Z,28.07
2017-03-24T08:37:23.706Z,28.04
2017-03-24T08:38:23.754Z,28.07
2017-03-24T08:39:23.798Z,28.17
2017-03-24T08:40:23.887Z,28.23
2017-03-24T08:41:23.904Z,28.22
2017-03-24T08:42:24.245Z,28.17
2017-03-24T08:43:23.996Z,28.07
2017-03-24T08:44:24.207Z,27.79
2017-03-24T08:45:24.094Z,27.33
2017-03-24T08:46:24.148Z,26.59
2017-03-24T08:47:24.188Z,26.06
2017-03-24T08:48:24.274Z,25.87
2017-03-24T08:49:24.284Z,26.06
2017-03-24T08:50:24.336Z,26.18
2017-03-24T08:51:24.382Z,26.24
2017-03-24T08:52:24.434Z,26.46
2017-03-24T08:53:24.782Z,26.47
2017-03-24T08:54:24.872Z,26.62
2017-03-24T08:55:24.877Z,26.69
2017-03-24T08:56:24.644Z,26.86
2017-03-24T08:57:24.675Z,27.02
2017-03-24T08:58:24.720Z,26.89
2017-03-24T08:59:24.788Z,26.76
2017-03-24T09:00:24.861Z,26.74
2017-03-24T09:01:24.869Z,26.72
2017-03-24T09:02:24.978Z,26.68
2017-03-24T09:03:24.965Z,26.8
2017-03-24T09:04:25.073Z,26.96
2017-03-24T09:05:25.067Z,27.06
2017-03-24T09:06:25.126Z,27.24
2017-03-24T09:07:25.163Z,27.5
2017-03-24T09:08:25.214Z,27.61
2017-03-24T09:09:25.305Z,27.57
2017-03-24T09:10:25.317Z,27.33
2017-03-24T09:11:26.120Z,27.11
2017-03-24T09:12:25.714Z,26.73
2017-03-24T09:13:25.899Z,26.2
2017-03-24T09:14:25.521Z,25.94
2017-03-24T09:15:25.614Z,25.71
2017-03-24T09:16:25.642Z,25.22
2017-03-24T09:17:25.683Z,24.95
2017-03-24T09:18:25.716Z,24.02
2017-03-24T09:19:26.165Z,22.94
2017-03-24T09:20:25.823Z,22.04
2017-03-24T09:21:25.874Z,21.48
2017-03-24T09:22:25.917Z,21.24
2017-03-24T09:23:25.993Z,21.16
2017-03-24T09:24:26.017Z,21.19
2017-03-24T09:25:26.113Z,21.39
2017-03-24T09:26:26.415Z,21.63
2017-03-24T09:27:26.167Z,21.48
2017-03-24T09:28:26.211Z,21.44
2017-03-24T09:29:26.295Z,21.51
2017-03-24T09:30:26.315Z,21.67
2017-03-24T09:31:26.366Z,21.72
2017-03-24T09:32:26.414Z,21.94
2017-03-24T09:33:26.461Z,22.25
2017-03-24T09:34:26.515Z,22.01
2017-03-24T09:35:26.565Z,21.76
2017-03-24T09:36:26.614Z,21.45
2017-03-24T09:37:26.662Z,21.27
2017-03-24T09:38:26.721Z,21.23
2017-03-24T09:39:26.755Z,21.11
2017-03-24T09:40:26.859Z,20.8
2017-03-24T09:41:26.861Z,20.61
2017-03-24T09:42:27.220Z,20.23
2017-03-24T09:43:26.960Z,19.95
2017-03-24T09:44:27.021Z,19.83
2017-03-24T09:45:27.062Z,19.78
2017-03-24T09:46:27.110Z,19.75
2017-03-24T09:47:27.164Z,19.69
2017-03-24T09:48:27.209Z,19.72
2017-03-24T09:49:27.262Z,19.95
2017-03-24T09:50:27.312Z,20.21
2017-03-24T09:51:27.357Z,20.18
2017-03-24T09:52:27.412Z,19.9
2017-03-24T09:53:27.463Z,19.6
2017-03-24T09:54:27.512Z,19.25
2017-03-24T09:55:27.562Z,19.28
2017-03-24T09:56:27.615Z,19.42
2017-03-24T09:57:27.661Z,19.72
2017-03-24T09:58:27.725Z,20.15
2017-03-24T09:59:28.129Z,20.61
2017-03-24T10:00:27.806Z,21.01
2017-03-24T10:01:27.859Z,21.32
2017-03-24T10:02:29.452Z,21.5
2017-03-24T10:03:27.962Z,21.32
2017-03-24T10:04:28.022Z,20.87
2017-03-24T10:05:28.065Z,20.31
2017-03-24T10:06:28.116Z,19.76
2017-03-24T10:07:28.167Z,19.36
2017-03-24T10:08:28.524Z,19.17
2017-03-24T10:09:28.269Z,19.06
2017-03-24T10:10:28.322Z,19.2
2017-03-24T10:11:28.374Z,19.25
2017-03-24T10:12:28.424Z,19.28
2017-03-24T10:13:28.479Z,19.47
2017-03-24T10:14:28.530Z,19.69
2017-03-24T10:15:28.577Z,19.94
2017-03-24T10:16:28.630Z,19.84
2017-03-24T10:17:28.682Z,19.91
2017-03-24T10:18:28.740Z,19.9
2017-03-24T10:19:28.812Z,19.65
2017-03-24T10:20:28.846Z,19.33
2017-03-24T10:21:28.896Z,18.86
2017-03-24T10:22:28.974Z,18.43
2017-03-24T10:23:28.998Z,18.13
2017-03-24T10:24:29.052Z,18.03
2017-03-24T10:25:29.098Z,17.95
2017-03-24T10:26:29.152Z,17.97
2017-03-24T10:27:29.210Z,18
2017-03-24T10:28:29.258Z,17.84
2017-03-24T10:29:29.303Z,17.55
2017-03-24T10:30:29.358Z,17.35
2017-03-24T10:31:29.408Z,17.33
2017-03-24T10:32:29.460Z,17.41
2017-03-24T10:33:29.507Z,17.7
2017-03-24T10:34:29.868Z,17.89
2017-03-24T10:35:29.616Z,17.82
2017-03-24T10:36:29.664Z,17.64
2017-03-24T10:37:30.019Z,17.44
2017-03-24T10:38:30.079Z,17.48
2017-03-24T10:39:29.822Z,17.62
2017-03-24T10:40:29.866Z,17.88
2017-03-24T10:41:29.931Z,18.02
2017-03-24T10:42:29.969Z,17.88
2017-03-24T10:43:30.028Z,17.84
2017-03-24T10:44:30.376Z,17.87
2017-03-24T10:45:30.125Z,17.79
2017-03-24T10:46:30.178Z,17.97
2017-03-24T10:47:30.226Z,18
2017-03-24T10:48:30.355Z,18.1
2017-03-24T10:49:30.332Z,18.37
2017-03-24T10:50:30.388Z,18.58
2017-03-24T10:51:30.430Z,18.55
2017-03-24T10:52:30.567Z,18.73
2017-03-24T10:53:30.537Z,18.73
2017-03-24T10:54:30.587Z,18.73
2017-03-24T10:55:30.651Z,18.74
2017-03-24T10:56:30.695Z,18.59
2017-03-24T10:57:30.752Z,18.47
2017-03-24T10:58:30.802Z,18.64
2017-03-24T10:59:30.852Z,18.7
2017-03-24T11:00:30.896Z,18.79
2017-03-24T11:01:30.952Z,18.87
2017-03-24T11:02:31.003Z,18.84
2017-03-24T11:03:31.354Z,18.77
2017-03-24T11:04:31.111Z,18.62
2017-03-24T11:05:31.159Z,18.29
2017-03-24T11:06:31.212Z,17.99
2017-03-24T11:07:31.255Z,17.69
2017-03-24T11:08:31.612Z,17.3
2017-03-24T11:09:31.357Z,17.22
2017-03-24T11:10:31.418Z,17.23
2017-03-24T11:11:31.459Z,17.07
2017-03-24T11:12:31.510Z,16.86
2017-03-24T11:13:31.555Z,16.86
2017-03-24T11:14:31.601Z,17.03
2017-03-24T11:15:31.650Z,17.15
2017-03-24T11:16:31.707Z,17.13
2017-03-24T11:17:32.055Z,17.07
2017-03-24T11:18:31.870Z,17
2017-03-24T11:19:31.846Z,16.93
2017-03-24T11:20:31.893Z,16.9
2017-03-24T11:21:31.942Z,16.95
2017-03-24T11:22:31.987Z,17.13
2017-03-24T11:23:32.687Z,17.13
2017-03-24T11:24:32.083Z,17.06
2017-03-24T11:25:32.134Z,17.08
2017-03-24T11:26:32.171Z,16.98
2017-03-24T11:27:32.214Z,16.86
2017-03-24T11:28:32.260Z,16.74
2017-03-24T11:29:32.614Z,16.52
2017-03-24T11:30:32.357Z,16.2
2017-03-24T11:31:32.399Z,15.84
2017-03-24T11:32:32.449Z,15.63
2017-03-24T11:33:32.486Z,15.41
2017-03-24T11:34:32.533Z,15.3
2017-03-24T11:35:32.572Z,15.23
2017-03-24T11:36:32.622Z,15.27
2017-03-24T11:37:32.663Z,15.36
2017-03-24T11:38:32.711Z,15.36
2017-03-24T11:39:32.771Z,15.41
2017-03-24T11:40:32.800Z,15.43
2017-03-24T11:41:32.833Z,15.43
2017-03-24T11:42:33.048Z,15.52
2017-03-24T11:43:32.969Z,15.57
2017-03-24T11:44:32.964Z,15.84
2017-03-24T11:45:33.011Z,15.94
2017-03-24T11:46:33.068Z,16.15
2017-03-24T11:47:33.132Z,16.2
2017-03-24T11:48:33.134Z,16.34
2017-03-24T11:49:33.184Z,16.33
2017-03-24T11:50:33.234Z,16.26
2017-03-24T11:51:33.267Z,16.14
2017-03-24T11:52:33.314Z,16.04
2017-03-24T11:53:33.351Z,15.79
2017-03-24T11:54:33.402Z,15.59
2017-03-24T11:55:33.437Z,15.38
2017-03-24T11:56:33.480Z,15.17
2017-03-24T11:57:33.522Z,15.13
2017-03-24T11:58:33.558Z,15.06
2017-03-24T11:59:33.604Z,14.98
2017-03-24T12:00:33.647Z,14.91
2017-03-24T12:01:33.988Z,14.75
2017-03-24T12:02:33.736Z,14.68
2017-03-24T12:03:33.787Z,14.67
2017-03-24T12:04:33.815Z,14.65
2017-03-24T12:05:33.856Z,14.71
2017-03-24T12:06:33.892Z,14.93
2017-03-24T12:07:34.261Z,14.94
2017-03-24T12:08:33.975Z,15.03
2017-03-24T12:09:34.019Z,15.19
2017-03-24T12:10:34.058Z,15.21
2017-03-24T12:11:34.114Z,15.28
2017-03-24T12:12:34.151Z,15.17
2017-03-24T12:13:34.227Z,15.17
2017-03-24T12:14:34.266Z,15.24
2017-03-24T12:15:34.261Z,15.3
2017-03-24T12:16:34.303Z,15.21
2017-03-24T12:17:34.345Z,14.91
2017-03-24T12:18:34.609Z,14.9
2017-03-24T12:19:34.422Z,14.68
2017-03-24T12:20:34.464Z,14.69
2017-03-24T12:21:34.507Z,14.72
2017-03-24T12:22:34.544Z,14.81
2017-03-24T12:23:34.585Z,14.83
2017-03-24T12:24:34.624Z,14.88
2017-03-24T12:25:34.969Z,14.95
2017-03-24T12:26:34.705Z,14.9
2017-03-24T12:27:34.741Z,14.84
2017-03-24T12:28:34.789Z,14.86
2017-03-24T12:29:34.829Z,14.91
2017-03-24T12:30:34.868Z,14.95
2017-03-24T12:31:34.908Z,15.11
2017-03-24T12:32:34.945Z,15.3
2017-03-24T12:33:34.984Z,15.21
2017-03-24T12:34:35.026Z,15.26
2017-03-24T12:35:35.369Z,15.17
2017-03-24T12:36:35.106Z,15.19
2017-03-24T12:37:35.453Z,15.19
2017-03-24T12:38:35.503Z,15.17
2017-03-24T12:39:35.540Z,15.28
2017-03-24T12:40:35.575Z,15.24
2017-03-24T12:41:35.610Z,15.11
2017-03-24T12:42:35.346Z,15.08
2017-03-24T12:43:35.396Z,15.19
2017-03-24T12:44:35.426Z,15.12
2017-03-24T12:45:35.763Z,15.12
2017-03-24T12:46:35.503Z,15.21
2017-03-24T12:47:35.553Z,15.27
2017-03-24T12:48:35.582Z,15.27
2017-03-24T12:49:35.928Z,15.31
2017-03-24T12:50:35.663Z,15.27
2017-03-24T12:51:35.702Z,15.38
2017-03-24T12:52:35.741Z,15.41
2017-03-24T12:53:35.780Z,15.41
2017-03-24T12:54:35.825Z,15.46
2017-03-24T12:55:35.859Z,15.48
2017-03-24T12:56:35.903Z,15.45
2017-03-24T12:57:35.940Z,15.46
2017-03-24T12:58:35.983Z,15.38
2017-03-24T12:59:36.321Z,15.31
2017-03-24T13:00:36.059Z,15.41
2017-03-24T13:01:36.103Z,15.41
2017-03-24T13:02:36.140Z,15.39
2017-03-24T13:03:36.180Z,15.45
2017-03-24T13:04:36.220Z,15.45
2017-03-24T13:05:36.262Z,15.46
2017-03-24T13:06:36.300Z,15.51
2017-03-24T13:07:36.337Z,15.59
2017-03-24T13:08:36.375Z,15.61
2017-03-24T13:09:36.418Z,15.61